• Join FlightAware (Why Join?)
  • Login
  • US Flag 
10:29PM EDT


 

Airport Tracker/Info


-or-


 

Live Flight TrackerFlight Track Log ✈ ASA471 ✈ 13-05-2013 ✈ KLAX - KSEA

Flight Track Log - Related Links

Times and Time Zones

All times are in EDT time to prevent confusion due to time zone crossing. See the ASA471 flight status page for this flight to view local times or setup timezone preferences in your user account.

Time Position Orientation Groundspeed Altitude Reporting Facility
EDT Latitude Longitude Course Direction KTS MPH feet Rate Location/Type
02:05PM 33.9328 -118.4514 334° Northwest 178 205 1,700  Level Los Angeles Center
02:06PM 33.9272 -118.5275 265° West 212 244 3,400 1,800 Climbing Los Angeles Center
02:07PM 33.9211 -118.6114 265° West 248 285 5,500 1,980 Climbing Los Angeles Center
02:08PM 33.9747 -118.6744 316° Northwest 279 321 7,600 1,620 Climbing Los Angeles Center
02:09PM 34.0556 -118.7039 343° North 304 350 8,900 1,380 Climbing Los Angeles Center
02:10PM 34.1281 -118.6467 33° Northeast 303 349 10,500 1,620 Climbing Los Angeles Center
02:11PM 34.3721 -118.6399 334° Northwest  Level FlightAware Approximate
02:12PM 34.2203 -118.6156 16° North 333 383 12,300  Level Los Angeles Center
02:13PM 34.3183 -118.6233 356° North 368 423 14,500 2,400 Climbing Los Angeles Center
02:14PM 34.4178 -118.6683 340° North 380 437 17,300 2,160 Climbing Los Angeles Center
02:15PM 34.5200 -118.7192 338° Northwest 401 461 19,000 1,800 Climbing Los Angeles Center
02:16PM 34.6275 -118.7719 338° Northwest 418 481 21,100 2,160 Climbing Los Angeles Center
02:17PM 34.7575 -118.8406 337° Northwest 424 488 23,500 2,040 Climbing Los Angeles Center
02:18PM 34.8725 -118.8897 341° North 439 505 25,400 1,680 Climbing Los Angeles Center
02:19PM 34.9911 -118.9336 343° North 440 506 27,100 1,560 Climbing Los Angeles Center
02:20PM 35.1100 -118.9806 342° North 448 516 28,700 1,440 Climbing Los Angeles Center
02:21PM 35.2325 -119.0269 343° North 459 528 30,100 1,620 Climbing Los Angeles Center
02:22PM 35.3775 -119.0831 342° North 457 526 32,100 1,500 Climbing Los Angeles Center
02:23PM 35.4958 -119.1294 342° North 450 518 33,200 960 Climbing Los Angeles Center
02:24PM 35.6169 -119.1769 342° North 456 525 34,200 960 Climbing Los Angeles Center
02:25PM 35.7383 -119.2244 342° North 459 528 35,200 840 Climbing Los Angeles Center
02:26PM 35.8611 -119.2589 347° North 457 526 36,000 360 Climbing Los Angeles Center
02:27PM 36.0125 -119.3031 347° North 463 533 36,000  Level Los Angeles Center
02:28PM 36.1367 -119.3389 347° North 461 531 36,000  Level Los Angeles Center
02:29PM 36.2614 -119.3731 348° North 463 533 36,000  Level Oakland Center
02:30PM 36.3853 -119.4106 346° North 461 531 36,000  Level Oakland Center
02:31PM 36.5358 -119.4539 347° North 464 534 36,000  Level Oakland Center
02:32PM 36.6611 -119.4908 347° North 464 534 36,000  Level Oakland Center
02:33PM 36.7878 -119.5283 347° North 469 540 36,000  Level Oakland Center
02:34PM 36.9147 -119.5692 346° North 471 542 36,000  Level Oakland Center
02:35PM 37.0408 -119.6078 346° North 467 537 36,000  Level Oakland Center
02:36PM 37.1675 -119.6475 346° North 471 542 36,000  Level Oakland Center
02:37PM 37.2942 -119.6844 347° North 468 539 36,000  Level Oakland Center
02:38PM 37.4436 -119.7303 346° North 474 545 36,000  Level Oakland Center
02:39PM 37.5728 -119.7700 346° North 477 549 36,000  Level Oakland Center
02:40PM 37.7000 -119.8067 347° North 469 540 36,000  Level Oakland Center
02:41PM 37.8281 -119.8453 347° North 473 544 36,000  Level Oakland Center
02:42PM 37.9569 -119.8847 346° North 476 548 36,000  Level Oakland Center
02:44PM 38.0861 -119.9236 347° North 478 550 36,000  Level Oakland Center
02:45PM 38.2131 -119.9636 346° North 473 544 36,000  Level Oakland Center
02:46PM 38.3419 -120.0042 346° North 477 549 36,000  Level Oakland Center
02:47PM 38.4956 -120.0519 346° North 475 547 36,000  Level Oakland Center
02:48PM 38.6247 -120.0928 346° North 478 550 36,000  Level Oakland Center
02:49PM 38.7542 -120.1328 346° North 481 554 36,000  Level Oakland Center
02:50PM 38.8822 -120.1731 346° North 477 549 36,000  Level Oakland Center
02:51PM 39.0133 -120.2144 346° North 485 558 36,000  Level Oakland Center
02:52PM 39.1428 -120.2550 346° North 482 555 36,000  Level Oakland Center
02:53PM 39.2708 -120.2967 346° North 477 549 36,000  Level Oakland Center
02:54PM 39.4008 -120.3378 346° North 481 554 36,000  Level Oakland Center
02:55PM 39.5300 -120.3789 346° North 480 552 36,000  Level Oakland Center
02:56PM 39.6844 -120.4294 346° North 480 552 36,000  Level Oakland Center
02:57PM 39.8144 -120.4708 346° North 480 552 36,000  Level Oakland Center
02:58PM 39.9414 -120.5128 346° North 475 547 36,000  Level Oakland Center
02:59PM 40.0789 -120.5567 346° North 475 547 36,000  Level Oakland Center
03:00PM 40.2075 -120.5989 346° North 479 551 36,000  Level Oakland Center
03:01PM 40.3369 -120.6408 346° North 486 559 36,000  Level Oakland Center
03:02PM 40.4633 -120.6808 346° North 473 544 36,000  Level Oakland Center
03:03PM 40.5889 -120.7244 345° North 477 549 36,000  Level Oakland Center
03:03PM 40.6394 -120.7411 346° North 470 541 36,000  Level Seattle Center
03:04PM 40.7681 -120.7819 346° North 471 542 36,000  Level Seattle Center
03:05PM 40.8947 -120.8233 346° North 471 542 36,000  Level Seattle Center
03:06PM 41.0197 -120.8683 345° North 466 536 36,000  Level Seattle Center
03:07PM 41.1458 -120.9119 345° North 467 537 36,000  Level Seattle Center
03:08PM 41.2753 -120.9547 346° North 477 549 36,000  Level Seattle Center
03:09PM 41.4014 -120.9989 345° North 472 543 36,000  Level Seattle Center
03:10PM 41.5283 -121.0453 345° North 473 544 36,000  Level Seattle Center
03:11PM 41.6578 -121.0878 346° North 478 550 36,000  Level Seattle Center
03:12PM 41.7861 -121.1317 346° North 479 551 36,000  Level Seattle Center
03:13PM 41.9408 -121.1858 345° North 480 552 36,000  Level Seattle Center
03:14PM 42.0719 -121.1942 357° North 488 562 36,000  Level Seattle Center
03:15PM 42.2017 -121.1164 24° Northeast 514 592 36,000  Level Seattle Center
03:16PM 42.3261 -121.0228 29° Northeast 515 593 36,000  Level Seattle Center
03:17PM 42.4514 -120.9283 29° Northeast 517 595 36,000  Level Seattle Center
03:18PM 42.5836 -120.8886 12° North 498 573 36,000  Level Seattle Center
03:20PM 42.6944 -120.9706 331° Northwest 461 531 36,000  Level Seattle Center
03:21PM 42.7967 -121.0633 326° Northwest 451 519 36,000  Level Seattle Center
03:22PM 42.9031 -121.1578 327° Northwest 453 521 36,000  Level Seattle Center
03:23PM 43.0089 -121.2508 327° Northwest 454 522 36,000  Level Seattle Center
03:24PM 43.1514 -121.3378 336° Northwest 473 544 36,000  Level Seattle Center
03:25PM 43.2797 -121.3950 342° North 477 549 36,000  Level Seattle Center
03:26PM 43.4017 -121.4497 342° North 473 544 36,000  Level Seattle Center
03:27PM 43.5283 -121.5108 341° North 479 551 36,000  Level Seattle Center
03:28PM 43.6528 -121.5722 340° North 477 549 36,000  Level Seattle Center
03:29PM 43.7783 -121.6297 342° North 476 548 36,000  Level Seattle Center
03:30PM 43.8967 -121.6839 342° North 478 550 36,000  Level Seattle Center
03:31PM 44.0461 -121.7556 341° North 473 544 36,000  Level Seattle Center
03:32PM 44.1689 -121.8133 341° North 468 539 36,000  Level Seattle Center
03:33PM 44.2917 -121.8731 341° North 466 536 36,000  Level Seattle Center
03:34PM 44.4203 -121.9328 342° North 466 536 36,000  Level Seattle Center
03:35PM 44.5397 -121.9908 341° North 459 528 36,000  Level Seattle Center
03:36PM 44.6600 -122.0494 341° North 459 528 36,000  Level Seattle Center
03:37PM 44.7803 -122.1097 340° North 461 531 36,000  Level Seattle Center
03:38PM 44.8883 -122.1622 341° North 464 534 36,000 -300 Level Seattle Center
03:39PM 45.0364 -122.2364 341° North 473 544 35,400 -840 Descending Seattle Center
03:40PM 45.1583 -122.2964 341° North 468 539 34,400 -720 Descending Seattle Center
03:41PM 45.2542 -122.4022 322° Northwest 444 511 34,000 -240 Descending Seattle Center
03:42PM 45.3486 -122.5086 322° Northwest 438 504 34,000  Level Seattle Center
03:43PM 45.4778 -122.5497 347° North 479 551 34,000  Level Seattle Center
03:44PM 45.6136 -122.5700 354° North 491 565 34,000  Level Seattle Center
03:45PM 45.7508 -122.5925 353° North 497 572 34,000 -1,200 Level Seattle Center
03:46PM 45.8856 -122.6236 351° North 494 568 31,600 -2,400 Descending Seattle Center
03:47PM 46.0256 -122.6608 350° North 507 583 29,200 -2,280 Descending Seattle Center
03:48PM 46.1611 -122.6931 351° North 500 575 27,000 -2,220 Descending Seattle Center
03:49PM 46.3089 -122.7192 353° North 492 566 24,700 -2,280 Descending Seattle Center
03:50PM 46.4428 -122.7203 360° North 488 562 22,400 -2,220 Descending Seattle Center
03:51PM 46.5728 -122.7142 North 475 547 20,200 -2,100 Descending Seattle Center
03:52PM 46.6939 -122.7097 North 444 511 18,200 -2,040 Descending Seattle Center
03:53PM 46.8036 -122.6669 15° North 411 473 16,500 -2,040 Descending Seattle Center
03:54PM 46.8953 -122.6081 24° Northeast 388 447 14,700 -1,860 Descending Seattle Center
03:54PM 46.9250 -122.5881 25° Northeast 384 442 14,300 -1,560 Descending Seattle Center
03:55PM 46.9794 -122.5461 28° Northeast 357 411 13,300 -1,620 Descending Seattle Center
03:55PM 47.0156 -122.5342 13° North 350 403 12,700 -1,440 Descending Seattle Center
03:56PM 47.0869 -122.5142 11° North 335 386 11,700 -1,320 Descending Seattle Center
03:56PM 47.1075 -122.5056 16° North 337 388 11,400 -1,380 Descending Seattle Center
03:57PM 47.1967 -122.4767 12° North 329 379 10,000 -1,500 Descending Seattle Center
03:58PM 47.2575 -122.4600 11° North 323 372 9,000 -1,500 Descending Seattle Center
03:58PM 47.2844 -122.4569 North 320 368 8,500 -1,020 Descending Seattle Center
03:59PM 47.3528 -122.4506 North 314 361 7,900 -900 Descending Seattle Center
03:59PM 47.3794 -122.4469 North 317 365 7,600 -1,200 Descending Seattle Center
04:00PM 47.4364 -122.4472 360° North 299 344 6,700 -1,200 Descending Seattle Center
04:00PM 47.4617 -122.4433 North 296 341 6,400 -1,140 Descending Seattle Center
04:01PM 47.5089 -122.4436 360° North 274 315 5,700 -1,020 Descending Seattle Center
04:01PM 47.5381 -122.4414 North 274 315 5,400 -660 Descending Seattle Center
04:02PM 47.5878 -122.4394 North 258 297 5,000 -720 Descending Seattle Center
04:02PM 47.6097 -122.4383 North 260 299 4,700 -780 Descending Seattle Center
04:03PM 47.6800 -122.4347 North 254 292 4,000 -360 Descending Seattle Center
04:04PM 47.7286 -122.3883 33° Northeast 230 265 4,000  Level Seattle Center
04:05PM 47.7061 -122.3447 127° Southeast 166 191 4,000  Level Seattle Center
04:05PM 47.6967 -122.3342 143° Southeast 179 206 4,000 -120 Level Seattle Center
04:06PM 47.6494 -122.3161 166° South 165 190 3,900 -360 Descending Seattle Center
04:07PM 47.6172 -122.3181 182° South 166 191 3,400 -840 Descending Seattle Center
04:07PM 47.6031 -122.3172 178° South 167 192 3,100 -900 Descending Seattle Center
04:08PM 47.5706 -122.3178 181° South 165 190 2,500 -900 Descending Seattle Center
04:08PM 47.5572 -122.3178 180° South 165 190 2,200 -900 Descending Seattle Center
04:09PM 47.5192 -122.3167 179° South 165 190 1,500 -840 Descending Seattle Center
04:10PM 47.4814 -122.3175 181° South 145 167 800 -780 Descending Seattle Center
04:10PM 47.4722 -122.3181 182° South 147 169 600 -360 Descending Seattle Center
04:11PM 47.4297 -122.3186 181° South 145 167 400 -240 Descending Seattle Center
04:13PM 47.4499 -122.3118 North  Level Estimated